createdAt,value
2023-01-13T00:01:26.831Z,57.17
2023-01-13T00:03:54.147Z,57.13
2023-01-13T00:06:25.732Z,57.30
2023-01-13T00:08:53.890Z,55.80
2023-01-13T00:11:22.380Z,55.50
2023-01-13T00:13:49.659Z,51.85
2023-01-13T00:16:18.878Z,55.40
2023-01-13T00:18:47.194Z,59.05
2023-01-13T00:21:18.256Z,59.30
2023-01-13T00:23:47.083Z,59.63
2023-01-13T00:26:17.978Z,55.20
2023-01-13T00:28:45.473Z,54.80
2023-01-13T00:31:15.986Z,57.38
2023-01-13T00:33:43.561Z,53.63
2023-01-13T00:36:18.446Z,55.95
2023-01-13T00:38:45.967Z,54.47
2023-01-13T00:41:16.826Z,53.42
2023-01-13T00:43:45.531Z,60.25
2023-01-13T00:46:14.950Z,59.28
2023-01-13T00:48:42.649Z,60.75
2023-01-13T00:51:15.390Z,63.65
2023-01-13T00:53:45.421Z,58.60
2023-01-13T00:56:19.983Z,55.95
2023-01-13T00:58:52.181Z,66.53
2023-01-13T01:01:22.791Z,60.55
2023-01-13T01:03:52.285Z,68.90
2023-01-13T01:06:22.360Z,62.15
2023-01-13T01:08:50.022Z,60.42
2023-01-13T01:11:20.935Z,59.08
2023-01-13T01:13:52.019Z,55.47
2023-01-13T01:16:21.564Z,57.30
2023-01-13T01:18:50.412Z,56.92
2023-01-13T01:21:18.491Z,55.58
2023-01-13T01:23:46.371Z,52.70
2023-01-13T01:26:16.820Z,54.65
2023-01-13T01:28:45.248Z,55.83
2023-01-13T01:31:22.375Z,56.78
2023-01-13T01:33:50.563Z,56.30
2023-01-13T01:36:19.860Z,57.42
2023-01-13T01:38:49.343Z,62.38
2023-01-13T01:41:22.586Z,55.80
2023-01-13T01:44:04.212Z,52.20
2023-01-13T01:46:40.658Z,54.90
2023-01-13T01:49:31.603Z,60.67
2023-01-13T01:52:04.356Z,55.80
2023-01-13T01:54:40.580Z,60.47
2023-01-13T01:57:11.598Z,53.22
2023-01-13T01:59:39.611Z,59.55
2023-01-13T02:02:08.513Z,52.20
2023-01-13T02:04:40.387Z,53.33
2023-01-13T02:09:36.623Z,51.60
2023-01-13T02:12:23.369Z,56.05
2023-01-13T02:14:51.270Z,46.67
2023-01-13T02:17:21.925Z,49.30
2023-01-13T02:19:58.505Z,50.65
2023-01-13T02:22:38.908Z,52.55
2023-01-13T02:25:06.199Z,56.50
2023-01-13T02:27:53.954Z,54.58
2023-01-13T02:31:04.972Z,51.85
2023-01-13T02:33:46.579Z,48.10
2023-01-13T02:36:32.889Z,54.22
2023-01-13T02:39:07.458Z,53.42
2023-01-13T02:42:01.564Z,53.30
2023-01-13T02:44:42.089Z,56.50
2023-01-13T02:47:16.381Z,48.90
2023-01-13T02:49:51.033Z,51.03
2023-01-13T02:52:28.951Z,52.05
2023-01-13T02:55:03.059Z,53.30
2023-01-13T02:57:34.228Z,58.92
2023-01-13T03:00:04.721Z,55.27
2023-01-13T03:02:32.703Z,53.00
2023-01-13T03:05:00.764Z,54.70
2023-01-13T03:07:56.934Z,53.05
2023-01-13T03:10:27.029Z,53.53
2023-01-13T03:13:21.762Z,52.75
2023-01-13T03:15:55.803Z,57.50
2023-01-13T03:18:30.373Z,58.47
2023-01-13T03:21:07.178Z,56.58
2023-01-13T03:23:48.927Z,52.60
2023-01-13T03:26:20.287Z,51.38
2023-01-13T03:29:07.150Z,49.08
2023-01-13T03:31:40.398Z,50.90
2023-01-13T03:34:18.091Z,47.42
2023-01-13T03:36:48.562Z,51.75
2023-01-13T03:39:23.893Z,45.92
2023-01-13T03:42:01.491Z,47.60
2023-01-13T03:44:59.034Z,47.40
2023-01-13T03:47:47.381Z,48.65
2023-01-13T03:50:35.658Z,44.22
2023-01-13T03:53:10.198Z,47.38
2023-01-13T03:55:47.189Z,53.95
2023-01-13T03:58:26.492Z,59.60
2023-01-13T04:01:00.172Z,50.28
2023-01-13T04:03:44.411Z,52.00
2023-01-13T04:06:17.776Z,53.03
2023-01-13T04:08:58.509Z,50.20
2023-01-13T04:11:35.222Z,52.63
2023-01-13T04:14:04.973Z,54.10
2023-01-13T04:16:32.605Z,58.90
2023-01-13T04:19:00.502Z,55.63
2023-01-13T04:21:29.433Z,50.97
2023-01-13T04:23:56.851Z,53.92
2023-01-13T04:26:24.442Z,55.70
2023-01-13T04:28:54.604Z,64.43
2023-01-13T04:31:22.984Z,58.75
2023-01-13T04:33:50.377Z,69.30
2023-01-13T04:36:19.622Z,71.40
2023-01-13T04:38:47.072Z,63.05
2023-01-13T04:41:14.784Z,63.17
2023-01-13T04:43:43.064Z,65.15
2023-01-13T04:46:10.445Z,62.75
2023-01-13T04:48:37.886Z,64.00
2023-01-13T04:51:05.346Z,59.95
2023-01-13T04:53:33.085Z,59.45
2023-01-13T04:56:00.418Z,59.35
2023-01-13T04:58:27.679Z,63.80
2023-01-13T05:00:55.580Z,62.28
2023-01-13T05:03:24.388Z,59.20
2023-01-13T05:05:52.511Z,60.03
2023-01-13T05:08:20.267Z,57.95
2023-01-13T05:10:48.109Z,59.90
2023-01-13T05:13:34.060Z,66.70
2023-01-13T05:16:19.963Z,53.00
2023-01-13T05:18:49.466Z,57.58
2023-01-13T05:21:36.039Z,55.47
2023-01-13T05:24:21.782Z,60.25
2023-01-13T05:26:49.139Z,63.60
2023-01-13T05:29:16.379Z,61.85
2023-01-13T05:31:44.100Z,66.45
2023-01-13T05:34:11.478Z,57.42
2023-01-13T05:36:38.831Z,65.40
2023-01-13T05:39:06.086Z,63.63
2023-01-13T05:41:52.330Z,55.78
2023-01-13T05:44:19.640Z,62.90
2023-01-13T05:46:47.044Z,54.20
2023-01-13T05:49:14.416Z,65.07
2023-01-13T05:51:42.663Z,61.83
2023-01-13T05:54:10.498Z,55.88
2023-01-13T05:56:37.757Z,58.10
2023-01-13T05:59:05.073Z,56.92
2023-01-13T06:01:32.792Z,60.10
2023-01-13T06:04:00.196Z,50.65
2023-01-13T06:06:27.569Z,55.45
2023-01-13T06:08:55.610Z,57.55
2023-01-13T06:11:23.342Z,59.63
2023-01-13T06:13:50.761Z,58.33
2023-01-13T06:16:18.567Z,56.15
2023-01-13T06:18:45.998Z,60.08
2023-01-13T06:21:13.451Z,51.90
2023-01-13T06:23:40.813Z,58.63
2023-01-13T06:26:21.464Z,51.35
2023-01-13T06:28:50.072Z,54.22
2023-01-13T06:31:18.492Z,60.75
2023-01-13T06:33:54.674Z,53.17
2023-01-13T06:36:41.650Z,54.88
2023-01-13T06:39:11.677Z,55.30
2023-01-13T06:41:58.691Z,53.53
2023-01-13T06:44:26.548Z,48.65
2023-01-13T06:46:53.953Z,53.75
2023-01-13T06:49:21.824Z,51.22
2023-01-13T06:51:49.787Z,58.78
2023-01-13T06:54:17.085Z,57.13
2023-01-13T06:56:44.405Z,66.82
2023-01-13T06:59:11.806Z,67.65
2023-01-13T07:01:39.732Z,57.05
2023-01-13T07:04:07.564Z,67.68
2023-01-13T07:06:34.913Z,64.57
2023-01-13T07:09:03.055Z,59.17
2023-01-13T07:11:31.417Z,54.92
2023-01-13T07:14:19.540Z,52.17
2023-01-13T07:16:47.793Z,60.15
2023-01-13T07:19:15.891Z,63.25
2023-01-13T07:21:43.837Z,52.85
2023-01-13T07:24:11.749Z,60.78
2023-01-13T07:26:39.473Z,65.45
2023-01-13T07:29:06.960Z,63.70
2023-01-13T07:31:34.764Z,65.28
2023-01-13T07:34:03.184Z,66.22
2023-01-13T07:36:30.474Z,59.90
2023-01-13T07:38:58.016Z,58.00
2023-01-13T07:41:43.913Z,60.10
2023-01-13T07:44:11.287Z,65.22
2023-01-13T07:46:39.491Z,123.82
2023-01-13T07:49:08.959Z,79.45
2023-01-13T07:51:38.585Z,60.45
2023-01-13T07:54:06.094Z,56.50
2023-01-13T07:56:33.762Z,51.65
2023-01-13T07:59:01.571Z,64.32
2023-01-13T08:01:31.796Z,63.88
2023-01-13T08:03:59.183Z,80.78
2023-01-13T08:06:26.855Z,74.18
2023-01-13T08:08:54.244Z,79.68
2023-01-13T08:11:23.510Z,61.38
2023-01-13T08:13:56.292Z,64.72
2023-01-13T08:16:24.189Z,71.80
2023-01-13T08:18:51.587Z,74.53
2023-01-13T08:21:19.082Z,67.95
2023-01-13T08:23:47.397Z,66.18
2023-01-13T08:26:17.416Z,65.05
2023-01-13T08:28:45.402Z,69.53
2023-01-13T08:31:16.152Z,61.38
2023-01-13T08:33:43.901Z,63.35
2023-01-13T08:36:12.397Z,62.08
2023-01-13T08:38:42.382Z,65.25
2023-01-13T08:41:16.085Z,61.50
2023-01-13T08:43:43.473Z,68.78
2023-01-13T08:46:10.904Z,73.97
2023-01-13T08:48:38.329Z,59.10
2023-01-13T08:51:08.736Z,69.75
2023-01-13T08:53:36.232Z,62.60
2023-01-13T08:56:07.691Z,62.30
2023-01-13T08:58:34.947Z,70.70
2023-01-13T09:01:06.586Z,68.57
2023-01-13T09:03:34.537Z,75.45
2023-01-13T09:06:02.173Z,70.53
2023-01-13T09:08:29.923Z,65.97
2023-01-13T09:10:57.729Z,64.80
2023-01-13T09:13:25.397Z,66.07
2023-01-13T09:15:56.314Z,74.03
2023-01-13T09:18:23.948Z,66.50
2023-01-13T09:20:51.361Z,68.38
2023-01-13T09:23:18.678Z,61.42
2023-01-13T09:25:46.181Z,65.60
2023-01-13T09:28:13.996Z,65.65
2023-01-13T09:30:41.357Z,67.88
2023-01-13T09:33:27.891Z,72.57
2023-01-13T09:35:59.130Z,73.70
2023-01-13T09:38:27.618Z,62.50
2023-01-13T09:40:55.722Z,65.32
2023-01-13T09:43:55.844Z,67.90
2023-01-13T09:46:47.176Z,75.45
2023-01-13T09:49:22.056Z,69.68
2023-01-13T09:51:58.673Z,66.07
2023-01-13T09:54:35.078Z,66.22
2023-01-13T09:57:10.053Z,67.15
2023-01-13T09:59:38.698Z,65.32
2023-01-13T10:02:32.750Z,68.30
2023-01-13T10:05:21.731Z,68.93
2023-01-13T10:08:02.794Z,73.07
2023-01-13T10:10:38.714Z,72.77
2023-01-13T10:13:16.329Z,69.90
2023-01-13T10:16:03.846Z,76.13
2023-01-13T10:18:57.904Z,78.60
2023-01-13T10:21:44.439Z,71.07
2023-01-13T10:24:33.780Z,76.78
2023-01-13T10:27:24.515Z,69.60
2023-01-13T10:29:52.291Z,85.85
2023-01-13T10:32:19.673Z,72.90
2023-01-13T10:34:52.297Z,86.53
2023-01-13T10:37:27.684Z,77.63
2023-01-13T10:39:58.094Z,71.72
2023-01-13T10:42:25.882Z,79.03
2023-01-13T10:44:57.070Z,69.25
2023-01-13T10:47:37.585Z,79.13
2023-01-13T10:50:11.437Z,78.22
2023-01-13T10:53:14.154Z,76.60
2023-01-13T10:56:14.441Z,72.55
2023-01-13T10:58:51.887Z,75.03
2023-01-13T11:01:26.088Z,74.40
2023-01-13T11:03:55.666Z,84.20
2023-01-13T11:06:26.588Z,81.38
2023-01-13T11:08:58.096Z,73.90
2023-01-13T11:11:41.362Z,72.00
2023-01-13T11:14:41.606Z,83.55
2023-01-13T11:17:32.019Z,82.43
2023-01-13T11:20:20.429Z,75.85
2023-01-13T11:22:52.900Z,80.32
2023-01-13T11:25:41.358Z,73.45
2023-01-13T11:28:53.535Z,78.80
2023-01-13T11:31:52.245Z,79.10
2023-01-13T11:34:30.411Z,79.03
2023-01-13T11:37:00.905Z,80.15
2023-01-13T11:39:50.007Z,68.55
2023-01-13T11:42:48.574Z,76.38
2023-01-13T11:45:32.496Z,67.85
2023-01-13T11:48:02.443Z,74.93
2023-01-13T11:50:50.647Z,68.30
2023-01-13T11:53:30.408Z,79.53
2023-01-13T11:56:29.290Z,70.68
2023-01-13T11:59:22.226Z,70.60
2023-01-13T12:02:14.526Z,72.10
2023-01-13T12:04:47.981Z,68.20
2023-01-13T12:07:36.613Z,69.53
2023-01-13T12:10:13.550Z,61.45
2023-01-13T12:12:47.548Z,56.05
2023-01-13T12:15:24.209Z,59.08
2023-01-13T12:18:10.777Z,53.35
2023-01-13T12:21:00.078Z,61.55
2023-01-13T12:23:35.699Z,57.95
2023-01-13T12:26:10.344Z,62.97
2023-01-13T12:29:07.646Z,62.17
2023-01-13T12:31:38.553Z,58.08
2023-01-13T12:34:33.664Z,63.67
2023-01-13T12:37:28.862Z,61.75
2023-01-13T12:40:03.879Z,59.78
2023-01-13T12:43:21.703Z,58.55
2023-01-13T12:45:49.170Z,58.83
2023-01-13T12:48:57.105Z,61.50
2023-01-13T12:51:33.462Z,63.50
2023-01-13T12:54:02.692Z,62.10
2023-01-13T12:56:38.848Z,64.30
2023-01-13T12:59:33.763Z,58.50
2023-01-13T13:02:10.990Z,56.90
2023-01-13T13:04:52.685Z,57.47
2023-01-13T13:07:51.329Z,57.78
2023-01-13T13:10:28.805Z,55.33
2023-01-13T13:13:17.813Z,52.03
2023-01-13T13:15:52.462Z,57.88
2023-01-13T13:18:23.878Z,56.70
2023-01-13T13:20:57.460Z,51.92
2023-01-13T13:23:43.568Z,53.55
2023-01-13T13:26:30.896Z,58.08
2023-01-13T13:28:58.663Z,56.03
2023-01-13T13:31:38.002Z,56.47
2023-01-13T13:34:17.251Z,53.28
2023-01-13T13:36:44.544Z,62.85
2023-01-13T13:39:45.165Z,52.42
2023-01-13T13:42:37.445Z,53.00
2023-01-13T13:45:44.988Z,49.92
2023-01-13T13:48:31.308Z,53.47
2023-01-13T13:51:02.885Z,53.88
2023-01-13T13:53:34.605Z,47.80
2023-01-13T13:56:04.719Z,54.03
2023-01-13T13:58:36.881Z,49.05
2023-01-13T14:01:05.307Z,52.20
2023-01-13T14:03:38.367Z,55.35
2023-01-13T14:06:20.794Z,55.92
2023-01-13T14:08:50.435Z,50.60
2023-01-13T14:11:33.277Z,49.13
2023-01-13T14:14:18.179Z,49.95
2023-01-13T14:16:46.695Z,51.70
2023-01-13T14:19:36.702Z,52.75
2023-01-13T14:22:05.168Z,53.13
2023-01-13T14:24:33.112Z,50.40
2023-01-13T14:27:17.704Z,55.33
2023-01-13T14:29:45.687Z,48.08
2023-01-13T14:32:18.453Z,47.15
2023-01-13T14:34:47.352Z,49.15
2023-01-13T14:37:38.510Z,48.95
2023-01-13T14:40:06.902Z,54.20
2023-01-13T14:42:35.597Z,59.75
2023-01-13T14:45:04.240Z,51.85
2023-01-13T14:47:34.078Z,49.30
2023-01-13T14:50:06.874Z,56.30
2023-01-13T14:52:46.903Z,53.55
2023-01-13T14:55:40.273Z,52.80
2023-01-13T14:58:25.154Z,54.30
2023-01-13T15:01:36.477Z,51.50
2023-01-13T15:04:38.129Z,47.70
2023-01-13T15:07:13.324Z,52.03
2023-01-13T15:09:42.697Z,63.38
2023-01-13T15:12:23.573Z,100.50
2023-01-13T15:14:53.220Z,71.47
2023-01-13T15:17:20.613Z,194.05
2023-01-13T15:19:47.917Z,97.10
2023-01-13T15:22:15.179Z,59.22
2023-01-13T15:24:42.458Z,55.90
2023-01-13T15:27:19.797Z,54.60
2023-01-13T15:29:47.217Z,60.55
2023-01-13T15:32:19.349Z,59.15
2023-01-13T15:34:47.820Z,55.65
2023-01-13T15:37:16.863Z,52.90
2023-01-13T15:39:44.785Z,54.90
2023-01-13T15:42:31.688Z,53.40
2023-01-13T15:45:17.732Z,55.13
2023-01-13T15:47:45.741Z,53.28
2023-01-13T15:50:15.255Z,56.42
2023-01-13T15:52:42.765Z,51.97
2023-01-13T15:55:10.867Z,55.50
2023-01-13T15:57:42.366Z,55.95
2023-01-13T16:00:20.185Z,55.45
2023-01-13T16:02:51.722Z,51.17
2023-01-13T16:05:19.138Z,53.97
2023-01-13T16:07:46.831Z,64.07
2023-01-13T16:10:21.087Z,63.17
2023-01-13T16:12:48.664Z,64.47
2023-01-13T16:15:17.168Z,59.28
2023-01-13T16:17:46.612Z,58.97
2023-01-13T16:20:16.449Z,72.93
2023-01-13T16:22:45.398Z,87.18
2023-01-13T16:25:17.602Z,85.15
2023-01-13T16:27:45.906Z,66.45
2023-01-13T16:30:26.542Z,68.50
2023-01-13T16:32:55.401Z,71.97
2023-01-13T16:35:23.559Z,72.30
2023-01-13T16:37:52.125Z,65.93
2023-01-13T16:40:27.004Z,63.33
2023-01-13T16:42:54.447Z,62.10
2023-01-13T16:45:21.875Z,70.10
2023-01-13T16:47:49.528Z,75.85
2023-01-13T16:50:44.003Z,69.75
2023-01-13T16:53:11.959Z,76.72
2023-01-13T16:55:41.614Z,67.38
2023-01-13T16:58:18.125Z,62.10
2023-01-13T17:00:49.465Z,77.40
2023-01-13T17:03:16.941Z,68.15
2023-01-13T17:05:46.931Z,68.80
2023-01-13T17:08:17.767Z,77.50
2023-01-13T17:10:46.317Z,80.80
2023-01-13T17:13:16.995Z,72.05
2023-01-13T17:15:46.049Z,63.20
2023-01-13T17:18:13.921Z,78.95
2023-01-13T17:20:41.820Z,72.75
2023-01-13T17:23:09.759Z,66.15
2023-01-13T17:25:36.997Z,86.03
2023-01-13T17:28:04.600Z,71.50
2023-01-13T17:30:31.907Z,75.13
2023-01-13T17:32:59.678Z,73.57
2023-01-13T17:35:27.553Z,72.65
2023-01-13T17:37:54.861Z,72.82
2023-01-13T17:40:22.308Z,79.05
2023-01-13T17:42:49.738Z,94.65
2023-01-13T17:45:17.035Z,100.50
2023-01-13T17:47:47.288Z,112.32
2023-01-13T17:50:16.735Z,101.50
2023-01-13T17:52:44.195Z,105.30
2023-01-13T17:55:12.057Z,97.32
2023-01-13T17:57:39.448Z,96.30
2023-01-13T18:00:07.587Z,91.82
2023-01-13T18:02:39.497Z,90.03
2023-01-13T18:05:07.065Z,101.70
2023-01-13T18:07:34.924Z,102.78
2023-01-13T18:10:02.467Z,110.20
2023-01-13T18:12:29.806Z,107.25
2023-01-13T18:14:57.478Z,123.97
2023-01-13T18:17:24.730Z,110.60
2023-01-13T18:20:10.620Z,104.97
2023-01-13T18:22:56.500Z,92.35
2023-01-13T18:25:42.809Z,85.68
2023-01-13T18:28:10.251Z,79.47
2023-01-13T18:30:38.146Z,78.03
2023-01-13T18:33:05.489Z,84.07
2023-01-13T18:35:32.831Z,85.97
2023-01-13T18:38:00.230Z,86.50
2023-01-13T18:40:27.720Z,94.57
2023-01-13T18:42:55.474Z,88.63
2023-01-13T18:45:31.426Z,87.55
2023-01-13T18:48:02.674Z,93.90
2023-01-13T18:50:31.638Z,86.88
2023-01-13T18:52:59.441Z,88.30
2023-01-13T18:55:28.558Z,102.38
2023-01-13T18:57:56.705Z,108.57
2023-01-13T19:00:26.754Z,103.15
2023-01-13T19:05:34.992Z,89.05
2023-01-13T19:08:02.933Z,87.05
2023-01-13T19:10:32.234Z,88.68
2023-01-13T19:13:01.233Z,98.07
2023-01-13T19:15:30.578Z,129.05
2023-01-13T19:17:57.956Z,129.02
2023-01-13T19:20:25.230Z,118.70
2023-01-13T19:22:54.373Z,124.43
2023-01-13T19:25:22.039Z,102.93
2023-01-13T19:27:49.432Z,91.07
2023-01-13T19:30:17.457Z,86.85
2023-01-13T19:32:44.844Z,90.15
2023-01-13T19:35:13.153Z,93.75
2023-01-13T19:37:40.785Z,93.85
2023-01-13T19:40:09.873Z,96.78
2023-01-13T19:42:55.977Z,103.03
2023-01-13T19:45:26.383Z,93.65
2023-01-13T19:47:54.706Z,84.40
2023-01-13T19:50:23.427Z,87.63
2023-01-13T19:52:50.775Z,89.82
2023-01-13T19:55:19.723Z,88.80
2023-01-13T19:57:47.426Z,106.35
2023-01-13T20:00:20.280Z,118.03
2023-01-13T20:02:49.593Z,106.15
2023-01-13T20:05:21.332Z,120.55
2023-01-13T20:07:51.288Z,123.35
2023-01-13T20:10:20.647Z,136.60
2023-01-13T20:12:48.158Z,113.53
2023-01-13T20:15:15.696Z,102.78
2023-01-13T20:17:43.187Z,101.38
2023-01-13T20:20:11.939Z,127.15
2023-01-13T20:22:39.935Z,97.85
2023-01-13T20:25:09.298Z,97.53
2023-01-13T20:27:37.608Z,114.45
2023-01-13T20:30:06.360Z,114.10
2023-01-13T20:32:33.752Z,121.78
2023-01-13T20:35:01.110Z,119.30
2023-01-13T20:37:28.465Z,119.88
2023-01-13T20:39:58.015Z,116.13
2023-01-13T20:42:44.552Z,120.43
2023-01-13T20:45:19.848Z,110.57
2023-01-13T20:47:47.784Z,121.28
2023-01-13T20:50:16.330Z,116.43
2023-01-13T20:52:44.558Z,116.93
2023-01-13T20:55:13.460Z,118.38
2023-01-13T20:57:41.752Z,115.88
2023-01-13T21:00:10.380Z,121.25
2023-01-13T21:02:39.883Z,124.63
2023-01-13T21:05:08.668Z,118.88
2023-01-13T21:07:36.080Z,121.80
2023-01-13T21:10:04.059Z,116.82
2023-01-13T21:12:50.454Z,118.00
2023-01-13T21:15:17.880Z,119.93
2023-01-13T21:18:06.616Z,109.03
2023-01-13T21:20:36.202Z,120.30
2023-01-13T21:23:04.158Z,121.45
2023-01-13T21:25:35.146Z,122.00
2023-01-13T21:28:08.181Z,117.45
2023-01-13T21:30:37.594Z,112.85
2023-01-13T21:33:06.152Z,114.22
2023-01-13T21:35:34.307Z,115.78
2023-01-13T21:38:01.840Z,106.00
2023-01-13T21:40:29.405Z,86.03
2023-01-13T21:43:15.774Z,82.15
2023-01-13T21:46:04.221Z,92.95
2023-01-13T21:48:33.121Z,85.60
2023-01-13T21:51:01.342Z,76.65
2023-01-13T21:53:29.087Z,87.07
2023-01-13T21:55:56.424Z,87.10
2023-01-13T21:58:23.885Z,116.72
2023-01-13T22:00:51.266Z,123.57
2023-01-13T22:03:18.824Z,135.60
2023-01-13T22:05:47.172Z,122.28
2023-01-13T22:08:14.494Z,131.65
2023-01-13T22:10:57.612Z,114.30
2023-01-13T22:13:47.779Z,129.65
2023-01-13T22:16:15.605Z,123.30
2023-01-13T22:18:43.487Z,116.63
2023-01-13T22:21:11.183Z,115.30
2023-01-13T22:23:39.062Z,117.03
2023-01-13T22:26:07.709Z,144.70
2023-01-13T22:28:43.232Z,224.70
2023-01-13T22:31:13.181Z,151.82
2023-01-13T22:33:41.969Z,140.55
2023-01-13T22:36:10.243Z,118.68
2023-01-13T22:38:38.532Z,134.50
2023-01-13T22:41:07.911Z,126.03
2023-01-13T22:43:36.512Z,136.32
2023-01-13T22:46:06.835Z,133.48
2023-01-13T22:48:34.916Z,111.15
2023-01-13T22:51:11.424Z,100.47
2023-01-13T22:53:39.475Z,89.38
2023-01-13T22:56:07.862Z,84.97
2023-01-13T22:58:35.218Z,83.03
2023-01-13T23:01:12.077Z,90.68
2023-01-13T23:03:40.171Z,97.40
2023-01-13T23:06:08.502Z,83.65
2023-01-13T23:08:36.260Z,80.70
2023-01-13T23:11:06.361Z,90.72
2023-01-13T23:13:34.725Z,76.20
2023-01-13T23:16:09.014Z,83.22
2023-01-13T23:18:37.668Z,72.43
2023-01-13T23:21:06.156Z,71.28
2023-01-13T23:23:35.031Z,78.05
2023-01-13T23:26:03.625Z,87.70
2023-01-13T23:28:31.264Z,79.20
2023-01-13T23:30:59.030Z,71.55
2023-01-13T23:33:26.890Z,76.45
2023-01-13T23:35:59.260Z,73.88
2023-01-13T23:38:27.703Z,79.47
2023-01-13T23:40:55.750Z,87.00
2023-01-13T23:43:23.639Z,72.32
2023-01-13T23:45:51.499Z,79.03
2023-01-13T23:48:19.823Z,80.53
2023-01-13T23:50:57.790Z,100.30
2023-01-13T23:53:31.048Z,95.95
2023-01-13T23:55:59.278Z,92.97
2023-01-13T23:58:28.189Z,100.90
